sensor_id;sensor_type;location;lat;lon;timestamp;P1;durP1;ratioP1;P2;durP2;ratioP2
8952;SDS011;4511;50.890;8.054;2024-03-08T00:01:46;25.97;;;17.80;;
8952;SDS011;4511;50.890;8.054;2024-03-08T00:04:12;25.73;;;18.93;;
8952;SDS011;4511;50.890;8.054;2024-03-08T00:06:40;26.13;;;18.73;;
8952;SDS011;4511;50.890;8.054;2024-03-08T00:09:08;26.03;;;19.30;;
8952;SDS011;4511;50.890;8.054;2024-03-08T00:11:35;26.83;;;18.27;;
8952;SDS011;4511;50.890;8.054;2024-03-08T00:14:02;26.70;;;19.30;;
8952;SDS011;4511;50.890;8.054;2024-03-08T00:16:32;25.53;;;18.70;;
8952;SDS011;4511;50.890;8.054;2024-03-08T00:19:01;23.83;;;18.43;;
8952;SDS011;4511;50.890;8.054;2024-03-08T00:21:28;26.37;;;18.43;;
8952;SDS011;4511;50.890;8.054;2024-03-08T00:23:55;25.70;;;18.60;;
8952;SDS011;4511;50.890;8.054;2024-03-08T00:26:21;24.27;;;18.83;;
8952;SDS011;4511;50.890;8.054;2024-03-08T00:28:48;27.60;;;18.60;;
8952;SDS011;4511;50.890;8.054;2024-03-08T00:31:15;24.20;;;18.50;;
8952;SDS011;4511;50.890;8.054;2024-03-08T00:33:42;24.27;;;18.90;;
8952;SDS011;4511;50.890;8.054;2024-03-08T00:36:10;24.30;;;18.63;;
8952;SDS011;4511;50.890;8.054;2024-03-08T00:38:36;23.17;;;18.17;;
8952;SDS011;4511;50.890;8.054;2024-03-08T00:41:03;28.23;;;19.47;;
8952;SDS011;4511;50.890;8.054;2024-03-08T00:43:30;27.67;;;19.03;;
8952;SDS011;4511;50.890;8.054;2024-03-08T00:45:57;25.67;;;19.17;;
8952;SDS011;4511;50.890;8.054;2024-03-08T00:48:23;25.07;;;18.83;;
8952;SDS011;4511;50.890;8.054;2024-03-08T00:50:50;25.50;;;19.60;;
8952;SDS011;4511;50.890;8.054;2024-03-08T00:53:19;27.80;;;20.00;;
8952;SDS011;4511;50.890;8.054;2024-03-08T00:55:45;25.00;;;19.63;;
8952;SDS011;4511;50.890;8.054;2024-03-08T00:58:12;26.20;;;18.87;;
8952;SDS011;4511;50.890;8.054;2024-03-08T01:00:39;28.27;;;20.23;;
8952;SDS011;4511;50.890;8.054;2024-03-08T01:03:06;26.33;;;19.40;;
8952;SDS011;4511;50.890;8.054;2024-03-08T01:05:32;26.97;;;19.83;;
8952;SDS011;4511;50.890;8.054;2024-03-08T01:08:00;25.77;;;18.03;;
8952;SDS011;4511;50.890;8.054;2024-03-08T01:10:29;25.43;;;19.43;;
8952;SDS011;4511;50.890;8.054;2024-03-08T01:12:56;26.83;;;19.07;;
8952;SDS011;4511;50.890;8.054;2024-03-08T01:15:24;28.70;;;19.90;;
8952;SDS011;4511;50.890;8.054;2024-03-08T01:17:51;29.00;;;19.07;;
8952;SDS011;4511;50.890;8.054;2024-03-08T01:20:18;28.87;;;19.20;;
8952;SDS011;4511;50.890;8.054;2024-03-08T01:22:46;25.83;;;18.97;;
8952;SDS011;4511;50.890;8.054;2024-03-08T01:25:12;24.90;;;18.93;;
8952;SDS011;4511;50.890;8.054;2024-03-08T01:27:40;27.73;;;18.83;;
8952;SDS011;4511;50.890;8.054;2024-03-08T01:30:07;26.90;;;19.83;;
8952;SDS011;4511;50.890;8.054;2024-03-08T01:32:35;28.10;;;19.60;;
8952;SDS011;4511;50.890;8.054;2024-03-08T01:35:03;25.63;;;19.53;;
8952;SDS011;4511;50.890;8.054;2024-03-08T01:37:30;25.03;;;18.63;;
8952;SDS011;4511;50.890;8.054;2024-03-08T01:39:57;28.43;;;20.27;;
8952;SDS011;4511;50.890;8.054;2024-03-08T01:42:24;27.43;;;19.23;;
8952;SDS011;4511;50.890;8.054;2024-03-08T01:44:52;27.40;;;18.83;;
8952;SDS011;4511;50.890;8.054;2024-03-08T01:47:19;27.27;;;18.70;;
8952;SDS011;4511;50.890;8.054;2024-03-08T01:49:48;30.40;;;18.30;;
8952;SDS011;4511;50.890;8.054;2024-03-08T01:52:15;26.97;;;19.17;;
8952;SDS011;4511;50.890;8.054;2024-03-08T01:54:43;25.33;;;18.97;;
8952;SDS011;4511;50.890;8.054;2024-03-08T01:57:11;25.60;;;19.20;;
8952;SDS011;4511;50.890;8.054;2024-03-08T01:59:38;26.13;;;18.97;;
8952;SDS011;4511;50.890;8.054;2024-03-08T02:02:08;26.80;;;19.73;;
8952;SDS011;4511;50.890;8.054;2024-03-08T02:04:36;27.77;;;18.80;;
8952;SDS011;4511;50.890;8.054;2024-03-08T02:07:04;28.10;;;20.13;;
8952;SDS011;4511;50.890;8.054;2024-03-08T02:09:30;26.27;;;18.97;;
8952;SDS011;4511;50.890;8.054;2024-03-08T02:11:57;28.60;;;19.97;;
8952;SDS011;4511;50.890;8.054;2024-03-08T02:14:24;28.73;;;19.40;;
8952;SDS011;4511;50.890;8.054;2024-03-08T02:16:51;27.27;;;19.93;;
8952;SDS011;4511;50.890;8.054;2024-03-08T02:19:20;26.10;;;18.83;;
8952;SDS011;4511;50.890;8.054;2024-03-08T02:21:48;28.20;;;19.77;;
8952;SDS011;4511;50.890;8.054;2024-03-08T02:24:15;26.80;;;19.37;;
8952;SDS011;4511;50.890;8.054;2024-03-08T02:26:41;25.87;;;18.50;;
8952;SDS011;4511;50.890;8.054;2024-03-08T02:29:08;28.10;;;19.40;;
8952;SDS011;4511;50.890;8.054;2024-03-08T02:31:35;26.43;;;19.17;;
8952;SDS011;4511;50.890;8.054;2024-03-08T02:34:04;27.13;;;19.37;;
8952;SDS011;4511;50.890;8.054;2024-03-08T02:36:31;25.57;;;19.70;;
8952;SDS011;4511;50.890;8.054;2024-03-08T02:39:01;30.40;;;20.80;;
8952;SDS011;4511;50.890;8.054;2024-03-08T02:41:28;25.30;;;18.47;;
8952;SDS011;4511;50.890;8.054;2024-03-08T02:43:54;27.50;;;19.23;;
8952;SDS011;4511;50.890;8.054;2024-03-08T02:46:21;27.47;;;19.67;;
8952;SDS011;4511;50.890;8.054;2024-03-08T02:48:48;28.90;;;19.77;;
8952;SDS011;4511;50.890;8.054;2024-03-08T02:51:15;27.70;;;19.97;;
8952;SDS011;4511;50.890;8.054;2024-03-08T02:53:42;28.27;;;20.67;;
8952;SDS011;4511;50.890;8.054;2024-03-08T02:56:10;29.07;;;20.50;;
8952;SDS011;4511;50.890;8.054;2024-03-08T02:58:41;30.20;;;19.37;;
8952;SDS011;4511;50.890;8.054;2024-03-08T03:01:08;27.47;;;20.03;;
8952;SDS011;4511;50.890;8.054;2024-03-08T03:03:35;26.70;;;19.93;;
8952;SDS011;4511;50.890;8.054;2024-03-08T03:06:02;28.13;;;20.13;;
8952;SDS011;4511;50.890;8.054;2024-03-08T03:08:29;26.20;;;19.03;;
8952;SDS011;4511;50.890;8.054;2024-03-08T03:10:56;28.87;;;20.00;;
8952;SDS011;4511;50.890;8.054;2024-03-08T03:13:24;27.70;;;19.83;;
8952;SDS011;4511;50.890;8.054;2024-03-08T03:15:50;27.77;;;19.40;;
8952;SDS011;4511;50.890;8.054;2024-03-08T03:18:17;27.40;;;19.70;;
8952;SDS011;4511;50.890;8.054;2024-03-08T03:20:46;29.77;;;19.93;;
8952;SDS011;4511;50.890;8.054;2024-03-08T03:23:14;28.43;;;20.57;;
8952;SDS011;4511;50.890;8.054;2024-03-08T03:25:45;27.63;;;20.80;;
8952;SDS011;4511;50.890;8.054;2024-03-08T03:28:12;28.80;;;19.93;;
8952;SDS011;4511;50.890;8.054;2024-03-08T03:30:41;29.80;;;20.23;;
8952;SDS011;4511;50.890;8.054;2024-03-08T03:33:08;28.10;;;19.90;;
8952;SDS011;4511;50.890;8.054;2024-03-08T03:35:37;27.90;;;19.53;;
8952;SDS011;4511;50.890;8.054;2024-03-08T03:38:04;29.50;;;20.53;;
8952;SDS011;4511;50.890;8.054;2024-03-08T03:40:32;30.90;;;19.93;;
8952;SDS011;4511;50.890;8.054;2024-03-08T03:42:59;27.57;;;19.97;;
8952;SDS011;4511;50.890;8.054;2024-03-08T03:45:26;27.60;;;19.33;;
8952;SDS011;4511;50.890;8.054;2024-03-08T03:47:54;27.77;;;19.67;;
8952;SDS011;4511;50.890;8.054;2024-03-08T03:50:21;29.00;;;19.77;;
8952;SDS011;4511;50.890;8.054;2024-03-08T03:52:48;29.73;;;20.23;;
8952;SDS011;4511;50.890;8.054;2024-03-08T03:55:15;28.63;;;20.00;;
8952;SDS011;4511;50.890;8.054;2024-03-08T03:57:42;28.67;;;19.63;;
8952;SDS011;4511;50.890;8.054;2024-03-08T04:00:11;27.63;;;20.03;;
8952;SDS011;4511;50.890;8.054;2024-03-08T04:02:38;27.03;;;19.30;;
8952;SDS011;4511;50.890;8.054;2024-03-08T04:05:08;29.10;;;20.60;;
8952;SDS011;4511;50.890;8.054;2024-03-08T04:07:35;28.07;;;20.37;;
8952;SDS011;4511;50.890;8.054;2024-03-08T04:10:03;29.67;;;19.60;;
8952;SDS011;4511;50.890;8.054;2024-03-08T04:12:32;28.70;;;20.40;;
8952;SDS011;4511;50.890;8.054;2024-03-08T04:14:59;26.97;;;20.27;;
8952;SDS011;4511;50.890;8.054;2024-03-08T04:17:25;29.77;;;19.53;;
8952;SDS011;4511;50.890;8.054;2024-03-08T04:19:52;32.40;;;21.00;;
8952;SDS011;4511;50.890;8.054;2024-03-08T04:22:21;28.07;;;19.77;;
8952;SDS011;4511;50.890;8.054;2024-03-08T04:24:47;29.10;;;20.63;;
8952;SDS011;4511;50.890;8.054;2024-03-08T04:27:14;30.30;;;20.83;;
8952;SDS011;4511;50.890;8.054;2024-03-08T04:29:41;28.10;;;19.80;;
8952;SDS011;4511;50.890;8.054;2024-03-08T04:32:08;32.37;;;20.83;;
8952;SDS011;4511;50.890;8.054;2024-03-08T04:34:35;28.60;;;20.70;;
8952;SDS011;4511;50.890;8.054;2024-03-08T04:37:01;29.37;;;20.97;;
8952;SDS011;4511;50.890;8.054;2024-03-08T04:39:31;28.63;;;20.27;;
8952;SDS011;4511;50.890;8.054;2024-03-08T04:41:59;29.77;;;20.77;;
8952;SDS011;4511;50.890;8.054;2024-03-08T04:44:29;27.07;;;19.53;;
8952;SDS011;4511;50.890;8.054;2024-03-08T04:46:56;30.30;;;20.00;;
8952;SDS011;4511;50.890;8.054;2024-03-08T04:49:23;30.07;;;20.37;;
8952;SDS011;4511;50.890;8.054;2024-03-08T04:51:50;28.83;;;20.83;;
8952;SDS011;4511;50.890;8.054;2024-03-08T04:54:16;28.47;;;19.60;;
8952;SDS011;4511;50.890;8.054;2024-03-08T04:56:45;28.70;;;20.37;;
8952;SDS011;4511;50.890;8.054;2024-03-08T04:59:12;27.93;;;20.70;;
8952;SDS011;4511;50.890;8.054;2024-03-08T05:01:38;28.67;;;20.10;;
8952;SDS011;4511;50.890;8.054;2024-03-08T05:04:05;29.00;;;20.70;;
8952;SDS011;4511;50.890;8.054;2024-03-08T05:06:32;27.27;;;19.57;;
8952;SDS011;4511;50.890;8.054;2024-03-08T05:08:59;26.87;;;20.00;;
8952;SDS011;4511;50.890;8.054;2024-03-08T05:11:25;28.60;;;20.43;;
8952;SDS011;4511;50.890;8.054;2024-03-08T05:13:54;28.50;;;20.40;;
8952;SDS011;4511;50.890;8.054;2024-03-08T05:16:20;26.47;;;20.20;;
8952;SDS011;4511;50.890;8.054;2024-03-08T05:18:49;29.57;;;20.00;;
8952;SDS011;4511;50.890;8.054;2024-03-08T05:21:16;28.40;;;19.57;;
8952;SDS011;4511;50.890;8.054;2024-03-08T05:23:45;30.63;;;20.07;;
8952;SDS011;4511;50.890;8.054;2024-03-08T05:26:12;31.07;;;21.23;;
8952;SDS011;4511;50.890;8.054;2024-03-08T05:28:39;29.37;;;20.13;;
8952;SDS011;4511;50.890;8.054;2024-03-08T05:31:07;30.33;;;20.43;;
8952;SDS011;4511;50.890;8.054;2024-03-08T05:33:34;30.17;;;20.07;;
8952;SDS011;4511;50.890;8.054;2024-03-08T05:36:00;29.13;;;19.63;;
8952;SDS011;4511;50.890;8.054;2024-03-08T05:38:27;29.97;;;19.37;;
8952;SDS011;4511;50.890;8.054;2024-03-08T05:40:54;28.80;;;19.97;;
8952;SDS011;4511;50.890;8.054;2024-03-08T05:43:21;29.23;;;20.67;;
8952;SDS011;4511;50.890;8.054;2024-03-08T05:45:47;27.60;;;19.27;;
8952;SDS011;4511;50.890;8.054;2024-03-08T05:48:15;31.63;;;20.40;;
8952;SDS011;4511;50.890;8.054;2024-03-08T05:50:43;29.87;;;20.03;;
8952;SDS011;4511;50.890;8.054;2024-03-08T05:53:10;29.13;;;20.83;;
8952;SDS011;4511;50.890;8.054;2024-03-08T05:55:38;30.23;;;20.63;;
8952;SDS011;4511;50.890;8.054;2024-03-08T05:58:05;28.30;;;20.10;;
8952;SDS011;4511;50.890;8.054;2024-03-08T06:00:33;30.43;;;20.27;;
8952;SDS011;4511;50.890;8.054;2024-03-08T06:03:01;29.93;;;20.80;;
8952;SDS011;4511;50.890;8.054;2024-03-08T06:05:30;29.53;;;20.33;;
8952;SDS011;4511;50.890;8.054;2024-03-08T06:07:56;31.90;;;20.33;;
8952;SDS011;4511;50.890;8.054;2024-03-08T06:10:23;29.93;;;20.97;;
8952;SDS011;4511;50.890;8.054;2024-03-08T06:12:50;28.97;;;20.17;;
8952;SDS011;4511;50.890;8.054;2024-03-08T06:15:16;29.87;;;21.57;;
8952;SDS011;4511;50.890;8.054;2024-03-08T06:17:45;32.10;;;22.03;;
8952;SDS011;4511;50.890;8.054;2024-03-08T06:20:12;30.70;;;20.70;;
8952;SDS011;4511;50.890;8.054;2024-03-08T06:22:40;26.60;;;19.67;;
8952;SDS011;4511;50.890;8.054;2024-03-08T06:25:07;30.63;;;20.50;;
8952;SDS011;4511;50.890;8.054;2024-03-08T06:27:36;29.27;;;20.43;;
8952;SDS011;4511;50.890;8.054;2024-03-08T06:30:03;28.37;;;20.47;;
8952;SDS011;4511;50.890;8.054;2024-03-08T06:32:31;29.13;;;20.50;;
8952;SDS011;4511;50.890;8.054;2024-03-08T06:35:00;27.57;;;20.33;;
8952;SDS011;4511;50.890;8.054;2024-03-08T06:37:27;31.73;;;20.53;;
8952;SDS011;4511;50.890;8.054;2024-03-08T06:39:55;28.77;;;19.93;;
8952;SDS011;4511;50.890;8.054;2024-03-08T06:42:22;29.70;;;20.77;;
8952;SDS011;4511;50.890;8.054;2024-03-08T06:44:49;28.90;;;20.03;;
8952;SDS011;4511;50.890;8.054;2024-03-08T06:47:15;28.57;;;20.57;;
8952;SDS011;4511;50.890;8.054;2024-03-08T06:49:42;28.03;;;19.67;;
8952;SDS011;4511;50.890;8.054;2024-03-08T06:52:09;30.20;;;20.67;;
8952;SDS011;4511;50.890;8.054;2024-03-08T06:54:36;32.40;;;21.33;;
8952;SDS011;4511;50.890;8.054;2024-03-08T06:57:05;29.63;;;21.53;;
8952;SDS011;4511;50.890;8.054;2024-03-08T06:59:31;33.57;;;21.77;;
8952;SDS011;4511;50.890;8.054;2024-03-08T07:02:00;29.43;;;20.53;;
8952;SDS011;4511;50.890;8.054;2024-03-08T07:04:27;29.90;;;20.70;;
8952;SDS011;4511;50.890;8.054;2024-03-08T07:06:54;32.17;;;21.03;;
8952;SDS011;4511;50.890;8.054;2024-03-08T07:09:22;25.43;;;19.73;;
8952;SDS011;4511;50.890;8.054;2024-03-08T07:11:49;28.43;;;20.43;;
8952;SDS011;4511;50.890;8.054;2024-03-08T07:14:21;28.30;;;21.03;;
8952;SDS011;4511;50.890;8.054;2024-03-08T07:16:48;28.40;;;20.00;;
8952;SDS011;4511;50.890;8.054;2024-03-08T07:19:14;28.30;;;20.13;;
8952;SDS011;4511;50.890;8.054;2024-03-08T07:21:41;28.97;;;20.97;;
8952;SDS011;4511;50.890;8.054;2024-03-08T07:24:09;28.87;;;20.80;;
8952;SDS011;4511;50.890;8.054;2024-03-08T07:26:52;31.73;;;20.37;;
8952;SDS011;4511;50.890;8.054;2024-03-08T07:29:21;24.30;;;16.60;;
8952;SDS011;4511;50.890;8.054;2024-03-08T07:31:48;29.53;;;20.13;;
8952;SDS011;4511;50.890;8.054;2024-03-08T07:34:26;25.33;;;18.60;;
8952;SDS011;4511;50.890;8.054;2024-03-08T07:36:52;27.13;;;19.60;;
8952;SDS011;4511;50.890;8.054;2024-03-08T07:39:21;26.60;;;19.17;;
8952;SDS011;4511;50.890;8.054;2024-03-08T07:41:48;27.80;;;19.30;;
8952;SDS011;4511;50.890;8.054;2024-03-08T07:44:17;28.37;;;20.23;;
8952;SDS011;4511;50.890;8.054;2024-03-08T07:46:46;27.63;;;19.63;;
8952;SDS011;4511;50.890;8.054;2024-03-08T07:49:12;29.67;;;20.00;;
8952;SDS011;4511;50.890;8.054;2024-03-08T07:51:40;26.97;;;18.63;;
8952;SDS011;4511;50.890;8.054;2024-03-08T07:54:06;29.27;;;19.33;;
8952;SDS011;4511;50.890;8.054;2024-03-08T07:56:34;26.73;;;19.17;;
8952;SDS011;4511;50.890;8.054;2024-03-08T07:59:01;27.83;;;19.43;;
8952;SDS011;4511;50.890;8.054;2024-03-08T08:01:28;27.23;;;20.07;;
8952;SDS011;4511;50.890;8.054;2024-03-08T08:03:57;25.57;;;19.33;;
8952;SDS011;4511;50.890;8.054;2024-03-08T08:06:23;26.77;;;19.70;;
8952;SDS011;4511;50.890;8.054;2024-03-08T08:08:50;28.23;;;18.57;;
8952;SDS011;4511;50.890;8.054;2024-03-08T08:11:17;28.83;;;20.27;;
8952;SDS011;4511;50.890;8.054;2024-03-08T08:13:45;27.27;;;19.60;;
8952;SDS011;4511;50.890;8.054;2024-03-08T08:16:12;26.60;;;19.60;;
8952;SDS011;4511;50.890;8.054;2024-03-08T08:18:39;26.87;;;19.03;;
8952;SDS011;4511;50.890;8.054;2024-03-08T08:21:07;25.60;;;18.37;;
8952;SDS011;4511;50.890;8.054;2024-03-08T08:23:35;26.73;;;19.07;;
8952;SDS011;4511;50.890;8.054;2024-03-08T08:26:03;26.63;;;18.57;;
8952;SDS011;4511;50.890;8.054;2024-03-08T08:28:29;25.87;;;18.50;;
8952;SDS011;4511;50.890;8.054;2024-03-08T08:30:56;28.20;;;19.53;;
8952;SDS011;4511;50.890;8.054;2024-03-08T08:33:24;26.40;;;18.60;;
8952;SDS011;4511;50.890;8.054;2024-03-08T08:35:51;24.23;;;18.13;;
8952;SDS011;4511;50.890;8.054;2024-03-08T08:38:20;29.57;;;19.57;;
8952;SDS011;4511;50.890;8.054;2024-03-08T08:40:48;25.67;;;19.60;;
8952;SDS011;4511;50.890;8.054;2024-03-08T08:43:15;28.73;;;18.67;;
8952;SDS011;4511;50.890;8.054;2024-03-08T08:45:42;27.13;;;19.20;;
8952;SDS011;4511;50.890;8.054;2024-03-08T08:48:09;25.27;;;18.83;;
8952;SDS011;4511;50.890;8.054;2024-03-08T08:50:36;26.13;;;17.93;;
8952;SDS011;4511;50.890;8.054;2024-03-08T08:53:03;24.77;;;18.83;;
8952;SDS011;4511;50.890;8.054;2024-03-08T08:55:33;27.93;;;19.00;;
8952;SDS011;4511;50.890;8.054;2024-03-08T08:58:02;28.47;;;19.43;;
8952;SDS011;4511;50.890;8.054;2024-03-08T09:00:29;22.97;;;17.40;;
8952;SDS011;4511;50.890;8.054;2024-03-08T09:02:56;24.73;;;17.50;;
8952;SDS011;4511;50.890;8.054;2024-03-08T09:05:23;25.33;;;18.10;;
8952;SDS011;4511;50.890;8.054;2024-03-08T09:07:51;23.60;;;17.77;;
8952;SDS011;4511;50.890;8.054;2024-03-08T09:10:18;24.40;;;17.70;;
8952;SDS011;4511;50.890;8.054;2024-03-08T09:12:47;23.40;;;17.13;;
8952;SDS011;4511;50.890;8.054;2024-03-08T09:15:14;23.33;;;17.07;;
8952;SDS011;4511;50.890;8.054;2024-03-08T09:17:45;21.93;;;16.67;;
8952;SDS011;4511;50.890;8.054;2024-03-08T09:20:13;24.27;;;16.77;;
8952;SDS011;4511;50.890;8.054;2024-03-08T09:22:40;23.23;;;16.83;;
8952;SDS011;4511;50.890;8.054;2024-03-08T09:25:08;23.53;;;17.57;;
8952;SDS011;4511;50.890;8.054;2024-03-08T09:27:35;21.57;;;16.90;;
8952;SDS011;4511;50.890;8.054;2024-03-08T09:30:04;22.33;;;16.50;;
8952;SDS011;4511;50.890;8.054;2024-03-08T09:32:32;21.63;;;16.93;;
8952;SDS011;4511;50.890;8.054;2024-03-08T09:34:59;20.63;;;15.47;;
8952;SDS011;4511;50.890;8.054;2024-03-08T09:37:26;22.93;;;16.10;;
8952;SDS011;4511;50.890;8.054;2024-03-08T09:39:53;21.60;;;15.67;;
8952;SDS011;4511;50.890;8.054;2024-03-08T09:42:19;19.53;;;14.83;;
8952;SDS011;4511;50.890;8.054;2024-03-08T09:44:46;19.97;;;15.10;;
8952;SDS011;4511;50.890;8.054;2024-03-08T09:47:14;20.60;;;15.37;;
8952;SDS011;4511;50.890;8.054;2024-03-08T09:49:41;19.70;;;14.63;;
8952;SDS011;4511;50.890;8.054;2024-03-08T09:52:08;19.37;;;14.93;;
8952;SDS011;4511;50.890;8.054;2024-03-08T09:54:37;19.47;;;15.27;;
8952;SDS011;4511;50.890;8.054;2024-03-08T09:57:04;17.70;;;14.33;;
8952;SDS011;4511;50.890;8.054;2024-03-08T09:59:34;18.70;;;14.13;;
8952;SDS011;4511;50.890;8.054;2024-03-08T10:02:15;17.50;;;13.50;;
8952;SDS011;4511;50.890;8.054;2024-03-08T10:04:42;17.30;;;13.40;;
8952;SDS011;4511;50.890;8.054;2024-03-08T10:07:11;19.47;;;13.80;;
8952;SDS011;4511;50.890;8.054;2024-03-08T10:09:38;19.40;;;13.87;;
8952;SDS011;4511;50.890;8.054;2024-03-08T10:12:06;19.57;;;14.17;;
8952;SDS011;4511;50.890;8.054;2024-03-08T10:14:34;16.70;;;13.13;;
8952;SDS011;4511;50.890;8.054;2024-03-08T10:17:05;18.93;;;13.27;;
8952;SDS011;4511;50.890;8.054;2024-03-08T10:19:33;17.03;;;12.70;;
8952;SDS011;4511;50.890;8.054;2024-03-08T10:22:00;18.03;;;12.40;;
8952;SDS011;4511;50.890;8.054;2024-03-08T10:24:29;18.13;;;12.43;;
8952;SDS011;4511;50.890;8.054;2024-03-08T10:26:58;16.17;;;12.73;;
8952;SDS011;4511;50.890;8.054;2024-03-08T10:29:25;19.40;;;13.20;;
8952;SDS011;4511;50.890;8.054;2024-03-08T10:31:53;14.70;;;11.40;;
8952;SDS011;4511;50.890;8.054;2024-03-08T10:34:21;14.30;;;11.77;;
8952;SDS011;4511;50.890;8.054;2024-03-08T10:36:49;16.83;;;11.97;;
8952;SDS011;4511;50.890;8.054;2024-03-08T10:39:20;16.10;;;11.80;;
8952;SDS011;4511;50.890;8.054;2024-03-08T10:41:50;13.47;;;11.27;;
8952;SDS011;4511;50.890;8.054;2024-03-08T10:44:26;13.73;;;11.20;;
8952;SDS011;4511;50.890;8.054;2024-03-08T10:47:17;14.13;;;10.63;;
8952;SDS011;4511;50.890;8.054;2024-03-08T10:49:50;13.80;;;11.00;;
8952;SDS011;4511;50.890;8.054;2024-03-08T10:52:21;13.83;;;11.47;;
8952;SDS011;4511;50.890;8.054;2024-03-08T10:54:48;12.83;;;10.63;;
8952;SDS011;4511;50.890;8.054;2024-03-08T10:57:17;13.80;;;11.20;;
8952;SDS011;4511;50.890;8.054;2024-03-08T10:59:45;17.07;;;12.00;;
8952;SDS011;4511;50.890;8.054;2024-03-08T11:02:14;15.13;;;12.13;;
8952;SDS011;4511;50.890;8.054;2024-03-08T11:04:45;14.30;;;11.37;;
8952;SDS011;4511;50.890;8.054;2024-03-08T11:07:12;13.17;;;11.00;;
8952;SDS011;4511;50.890;8.054;2024-03-08T11:09:43;17.43;;;11.70;;
8952;SDS011;4511;50.890;8.054;2024-03-08T11:12:18;14.23;;;11.53;;
8952;SDS011;4511;50.890;8.054;2024-03-08T11:14:51;15.80;;;11.60;;
8952;SDS011;4511;50.890;8.054;2024-03-08T11:17:22;15.47;;;12.30;;
8952;SDS011;4511;50.890;8.054;2024-03-08T11:19:52;14.77;;;12.03;;
8952;SDS011;4511;50.890;8.054;2024-03-08T11:22:22;17.10;;;12.83;;
8952;SDS011;4511;50.890;8.054;2024-03-08T11:24:52;15.87;;;12.40;;
8952;SDS011;4511;50.890;8.054;2024-03-08T11:27:19;16.07;;;12.80;;
8952;SDS011;4511;50.890;8.054;2024-03-08T11:29:58;15.73;;;12.50;;
8952;SDS011;4511;50.890;8.054;2024-03-08T11:32:33;15.07;;;11.73;;
8952;SDS011;4511;50.890;8.054;2024-03-08T11:35:01;13.50;;;11.37;;
8952;SDS011;4511;50.890;8.054;2024-03-08T11:37:33;15.23;;;12.00;;
8952;SDS011;4511;50.890;8.054;2024-03-08T11:40:02;15.43;;;12.40;;
8952;SDS011;4511;50.890;8.054;2024-03-08T11:42:35;14.30;;;12.07;;
8952;SDS011;4511;50.890;8.054;2024-03-08T11:45:07;15.10;;;12.03;;
8952;SDS011;4511;50.890;8.054;2024-03-08T11:47:36;16.17;;;13.17;;
8952;SDS011;4511;50.890;8.054;2024-03-08T11:50:05;16.90;;;12.93;;
8952;SDS011;4511;50.890;8.054;2024-03-08T11:52:35;15.77;;;12.27;;
8952;SDS011;4511;50.890;8.054;2024-03-08T11:55:04;15.13;;;12.60;;
8952;SDS011;4511;50.890;8.054;2024-03-08T11:57:32;16.10;;;12.90;;
8952;SDS011;4511;50.890;8.054;2024-03-08T11:59:59;16.27;;;12.40;;
8952;SDS011;4511;50.890;8.054;2024-03-08T12:02:31;15.70;;;12.50;;
8952;SDS011;4511;50.890;8.054;2024-03-08T12:05:00;15.13;;;12.53;;
8952;SDS011;4511;50.890;8.054;2024-03-08T12:07:28;17.70;;;13.20;;
8952;SDS011;4511;50.890;8.054;2024-03-08T12:10:17;19.03;;;13.67;;
8952;SDS011;4511;50.890;8.054;2024-03-08T12:12:46;17.43;;;13.80;;
8952;SDS011;4511;50.890;8.054;2024-03-08T12:15:14;15.57;;;13.47;;
8952;SDS011;4511;50.890;8.054;2024-03-08T12:17:43;17.57;;;14.07;;
8952;SDS011;4511;50.890;8.054;2024-03-08T12:20:14;17.57;;;14.07;;
8952;SDS011;4511;50.890;8.054;2024-03-08T12:22:42;15.80;;;13.77;;
8952;SDS011;4511;50.890;8.054;2024-03-08T12:25:09;15.23;;;13.10;;
8952;SDS011;4511;50.890;8.054;2024-03-08T12:27:39;18.20;;;14.53;;
8952;SDS011;4511;50.890;8.054;2024-03-08T12:30:16;16.77;;;14.20;;
8952;SDS011;4511;50.890;8.054;2024-03-08T12:32:49;17.73;;;14.50;;
8952;SDS011;4511;50.890;8.054;2024-03-08T12:35:18;17.77;;;13.90;;
8952;SDS011;4511;50.890;8.054;2024-03-08T12:37:47;17.33;;;14.33;;
8952;SDS011;4511;50.890;8.054;2024-03-08T12:40:16;16.40;;;13.63;;
8952;SDS011;4511;50.890;8.054;2024-03-08T12:42:44;17.93;;;13.90;;
8952;SDS011;4511;50.890;8.054;2024-03-08T12:45:13;15.27;;;13.60;;
8952;SDS011;4511;50.890;8.054;2024-03-08T12:47:40;16.60;;;13.90;;
8952;SDS011;4511;50.890;8.054;2024-03-08T12:50:08;17.30;;;14.17;;
8952;SDS011;4511;50.890;8.054;2024-03-08T12:52:36;17.37;;;13.57;;
8952;SDS011;4511;50.890;8.054;2024-03-08T12:55:03;14.77;;;13.07;;
8952;SDS011;4511;50.890;8.054;2024-03-08T12:57:32;18.07;;;13.90;;
8952;SDS011;4511;50.890;8.054;2024-03-08T13:00:01;18.10;;;13.40;;
8952;SDS011;4511;50.890;8.054;2024-03-08T13:02:29;17.33;;;13.27;;
8952;SDS011;4511;50.890;8.054;2024-03-08T13:04:57;15.67;;;13.07;;
8952;SDS011;4511;50.890;8.054;2024-03-08T13:07:24;17.00;;;12.83;;
8952;SDS011;4511;50.890;8.054;2024-03-08T13:09:51;15.50;;;12.90;;
8952;SDS011;4511;50.890;8.054;2024-03-08T13:12:19;17.10;;;12.87;;
8952;SDS011;4511;50.890;8.054;2024-03-08T13:14:46;16.83;;;12.73;;
8952;SDS011;4511;50.890;8.054;2024-03-08T13:17:14;16.53;;;13.07;;
8952;SDS011;4511;50.890;8.054;2024-03-08T13:19:41;18.00;;;13.53;;
8952;SDS011;4511;50.890;8.054;2024-03-08T13:22:08;15.30;;;12.60;;
8952;SDS011;4511;50.890;8.054;2024-03-08T13:24:39;15.40;;;12.67;;
8952;SDS011;4511;50.890;8.054;2024-03-08T13:27:06;15.00;;;12.17;;
8952;SDS011;4511;50.890;8.054;2024-03-08T13:29:44;15.03;;;12.03;;
8952;SDS011;4511;50.890;8.054;2024-03-08T13:32:15;16.27;;;12.30;;
8952;SDS011;4511;50.890;8.054;2024-03-08T13:34:45;16.43;;;13.00;;
8952;SDS011;4511;50.890;8.054;2024-03-08T13:37:13;13.33;;;11.47;;
8952;SDS011;4511;50.890;8.054;2024-03-08T13:39:41;17.80;;;12.63;;
8952;SDS011;4511;50.890;8.054;2024-03-08T13:42:10;15.00;;;12.60;;
8952;SDS011;4511;50.890;8.054;2024-03-08T13:44:38;15.90;;;12.33;;
8952;SDS011;4511;50.890;8.054;2024-03-08T13:47:05;15.60;;;12.77;;
8952;SDS011;4511;50.890;8.054;2024-03-08T13:49:35;14.47;;;11.80;;
8952;SDS011;4511;50.890;8.054;2024-03-08T13:52:02;15.37;;;12.63;;
8952;SDS011;4511;50.890;8.054;2024-03-08T13:54:29;14.00;;;11.70;;
8952;SDS011;4511;50.890;8.054;2024-03-08T13:56:56;14.93;;;12.80;;
8952;SDS011;4511;50.890;8.054;2024-03-08T13:59:23;14.43;;;12.03;;
8952;SDS011;4511;50.890;8.054;2024-03-08T14:01:54;13.80;;;11.33;;
8952;SDS011;4511;50.890;8.054;2024-03-08T14:04:22;14.20;;;11.57;;
8952;SDS011;4511;50.890;8.054;2024-03-08T14:06:50;13.53;;;12.07;;
8952;SDS011;4511;50.890;8.054;2024-03-08T14:09:21;15.07;;;12.60;;
8952;SDS011;4511;50.890;8.054;2024-03-08T14:11:49;13.93;;;11.70;;
8952;SDS011;4511;50.890;8.054;2024-03-08T14:14:18;14.00;;;11.63;;
8952;SDS011;4511;50.890;8.054;2024-03-08T14:16:46;14.10;;;11.70;;
8952;SDS011;4511;50.890;8.054;2024-03-08T14:19:13;15.57;;;11.17;;
8952;SDS011;4511;50.890;8.054;2024-03-08T14:21:40;18.03;;;11.67;;
8952;SDS011;4511;50.890;8.054;2024-03-08T14:24:08;12.33;;;10.57;;
8952;SDS011;4511;50.890;8.054;2024-03-08T14:26:35;14.40;;;11.03;;
8952;SDS011;4511;50.890;8.054;2024-03-08T14:29:03;13.80;;;11.60;;
8952;SDS011;4511;50.890;8.054;2024-03-08T14:31:30;11.87;;;10.33;;
8952;SDS011;4511;50.890;8.054;2024-03-08T14:33:57;15.40;;;11.67;;
8952;SDS011;4511;50.890;8.054;2024-03-08T14:36:24;13.43;;;10.50;;
8952;SDS011;4511;50.890;8.054;2024-03-08T14:38:51;12.17;;;9.93;;
8952;SDS011;4511;50.890;8.054;2024-03-08T14:41:19;11.80;;;10.13;;
8952;SDS011;4511;50.890;8.054;2024-03-08T14:43:47;12.43;;;10.53;;
8952;SDS011;4511;50.890;8.054;2024-03-08T14:46:14;11.50;;;10.30;;
8952;SDS011;4511;50.890;8.054;2024-03-08T14:48:42;13.57;;;10.13;;
8952;SDS011;4511;50.890;8.054;2024-03-08T14:51:09;13.07;;;11.13;;
8952;SDS011;4511;50.890;8.054;2024-03-08T14:53:39;13.33;;;10.83;;